Skip Navigation Links
NOAA logo - Click to go to the NOAA homepage
NOAA's National Weather Service
Alaska Aviation Weather Unit
  NWS logo - Click to go to the NWS homepage
Left Navbar Graphic     23 AKDT = 07 GMT

   
NOAA is celebrating 200 years of science, service, and stewardship. Visit the NOAA 200th celebration Web site to learn more.
USA.gov is the U.S. Government's official Web portal to all Federal, state and local government Web resources and services.
Facebook
NWS on Facebook

Important Change Regarding the AAWU Web Presence

 

Over the last several months, the AAWU has been working to navigate its webpages to a nationally supported server. Security, as well as other needs, have necessitated the change.  In the process, we have made an effort to enhance the functionality of our website, as well as some of our products. As of June 20, 2017, aawu.arh.noaa.gov will be discontinued. The new AAWU web address is weather.gov/aawu. It is now live and will run in-parallel with the old site until it is discontinued. Please send any feedback or questions regarding the new webpages to nws.ar.aawu.webauthors@noaa.gov.  Thank you for your patience during this time of transition.
AAWU Home :: Display TAF Add Bookmark
TAF PAAQ 240521Z 2406/2506 VRB05KT P6SM SCT100 OVC200
     FM241500 12012G20KT P6SM -RA OVC040
     FM242000 14017G27KT P6SM -RA SCT025 OVC035=

METAR PAAQ 240153Z AUTO 24007KT 10SM FEW060 13/01 A3000 RMK AO2 SLP161 T01330006 TSNO= METAR PAAQ 240253Z AUTO 23006KT 10SM CLR 13/00 A3000 RMK AO2 SLP161 T01280000 53001 TSNO= METAR PAAQ 240353Z AUTO 24007KT 190V260 10SM SCT070 13/00 A3001 RMK AO2 SLP164 T01280000 TSNO= METAR PAAQ 240453Z AUTO 25003KT 10SM FEW070 11/01 A3000 RMK AO2 SLP163 T01060006 TSNO= METAR PAAQ 240553Z AUTO 00000KT 10SM SCT075 10/01 A3001 RMK AO2 SLP165 T01000011 10139 20100 51003 TSNO= METAR PAAQ 240653Z AUTO 00000KT 10SM SCT055 09/03 A3002 RMK AO2 SLP169 T00890028 TSNO=
 Alaska TAF Map

NOAA's National Weather Service
Alaska Aviation Weather Unit
6930 Sand Lake Road
Anchorage, AK 99502-1845
Disclaimer
Credits
Glossary
Privacy Policy
About Us
Career Opportunities
Contact AAWU Internet Services Site last modified: April, 17th 2012